createdAt,value
2017-04-21T00:00:55.320Z,18.05
2017-04-21T00:01:54.604Z,18.03
2017-04-21T00:02:53.876Z,18.17
2017-04-21T00:03:52.973Z,18.63
2017-04-21T00:04:52.484Z,19.52
2017-04-21T00:05:51.784Z,18.70
2017-04-21T00:06:51.069Z,18.42
2017-04-21T00:07:50.336Z,19.88
2017-04-21T00:08:49.604Z,19.32
2017-04-21T00:09:48.922Z,18.25
2017-04-21T00:10:48.201Z,19.23
2017-04-21T00:11:47.836Z,18.45
2017-04-21T00:12:47.180Z,17.73
2017-04-21T00:13:45.704Z,20.28
2017-04-21T00:14:44.988Z,18.87
2017-04-21T00:15:44.296Z,19.93
2017-04-21T00:16:43.567Z,20.77
2017-04-21T00:17:43.063Z,18.22
2017-04-21T00:18:42.332Z,18.93
2017-04-21T00:19:41.612Z,19.02
2017-04-21T00:20:41.496Z,17.40
2017-04-21T00:21:40.797Z,18.77
2017-04-21T00:22:40.436Z,18.88
2017-04-21T00:23:39.763Z,20.43
2017-04-21T00:24:39.225Z,18.00
2017-04-21T00:25:38.513Z,18.68
2017-04-21T00:26:37.776Z,20.08
2017-04-21T00:27:37.099Z,20.78
2017-04-21T00:28:36.376Z,19.97
2017-04-21T00:29:35.649Z,20.12
2017-04-21T00:30:35.265Z,19.77
2017-04-21T00:31:34.764Z,20.72
2017-04-21T00:32:34.043Z,20.40
2017-04-21T00:33:32.608Z,19.38
2017-04-21T00:34:31.927Z,20.47
2017-04-21T00:35:31.204Z,20.88
2017-04-21T00:36:30.482Z,20.15
2017-04-21T00:37:30.072Z,20.58
2017-04-21T00:38:29.357Z,19.15
2017-04-21T00:39:28.683Z,21.22
2017-04-21T00:40:28.032Z,20.92
2017-04-21T00:41:27.340Z,19.45
2017-04-21T00:42:26.941Z,21.17
2017-04-21T00:43:26.193Z,19.53
2017-04-21T00:44:25.788Z,19.30
2017-04-21T00:45:25.072Z,20.30
2017-04-21T00:46:24.656Z,22.02
2017-04-21T00:47:24.109Z,19.23
2017-04-21T00:48:23.392Z,21.27
2017-04-21T00:49:22.272Z,20.12
2017-04-21T00:50:21.855Z,18.47
2017-04-21T00:51:21.489Z,20.73
2017-04-21T00:52:21.075Z,21.35
2017-04-21T00:53:20.882Z,20.38
2017-04-21T00:54:20.135Z,20.57
2017-04-21T00:55:20.120Z,20.35
2017-04-21T00:56:19.889Z,21.87
2017-04-21T00:57:19.201Z,19.67
2017-04-21T00:58:18.440Z,20.10
2017-04-21T00:59:17.269Z,21.00
2017-04-21T01:00:16.515Z,19.95
2017-04-21T01:01:15.744Z,21.35
2017-04-21T01:02:15.319Z,21.02
2017-04-21T01:03:15.690Z,22.57
2017-04-21T01:04:14.153Z,21.65
2017-04-21T01:05:13.755Z,21.85
2017-04-21T01:06:13.212Z,20.98
2017-04-21T01:07:12.678Z,22.53
2017-04-21T01:08:11.955Z,20.70
2017-04-21T01:09:11.240Z,21.08
2017-04-21T01:10:10.812Z,21.35
2017-04-21T01:11:09.288Z,22.38
2017-04-21T01:12:08.544Z,23.53
2017-04-21T01:13:08.140Z,20.97
2017-04-21T01:14:06.640Z,22.77
2017-04-21T01:15:06.296Z,21.07
2017-04-21T01:16:05.533Z,22.95
2017-04-21T01:17:04.784Z,21.63
2017-04-21T01:18:04.765Z,21.58
2017-04-21T01:19:04.374Z,23.92
2017-04-21T01:20:04.315Z,24.47
2017-04-21T01:21:02.823Z,21.10
2017-04-21T01:22:02.080Z,19.32
2017-04-21T01:23:01.905Z,22.13
2017-04-21T01:24:01.575Z,22.18
2017-04-21T01:25:00.811Z,22.45
2017-04-21T01:26:01.008Z,21.50
2017-04-21T01:27:01.029Z,22.20
2017-04-21T01:28:00.304Z,20.67
2017-04-21T01:28:59.544Z,21.77
2017-04-21T01:29:58.780Z,20.48
2017-04-21T01:30:58.023Z,22.45
2017-04-21T01:31:57.635Z,22.18
2017-04-21T01:32:57.015Z,21.97
2017-04-21T01:33:56.668Z,23.63
2017-04-21T01:34:55.160Z,21.68
2017-04-21T01:35:54.752Z,21.30
2017-04-21T01:36:53.248Z,23.17
2017-04-21T01:37:52.491Z,23.27
2017-04-21T01:38:52.089Z,22.17
2017-04-21T01:39:51.332Z,21.70
2017-04-21T01:40:50.579Z,22.78
2017-04-21T01:41:49.823Z,22.37
2017-04-21T01:42:49.064Z,21.98
2017-04-21T01:43:47.756Z,21.93
2017-04-21T01:44:46.263Z,22.38
2017-04-21T01:45:45.724Z,22.05
2017-04-21T01:46:45.312Z,22.33
2017-04-21T01:47:44.909Z,23.62
2017-04-21T01:48:44.515Z,23.40
2017-04-21T01:49:43.220Z,23.03
2017-04-21T01:50:42.511Z,22.57
2017-04-21T01:51:41.810Z,24.32
2017-04-21T01:52:41.051Z,21.40
2017-04-21T01:53:40.317Z,20.65
2017-04-21T01:54:39.572Z,23.90
2017-04-21T01:55:38.818Z,24.23
2017-04-21T01:56:38.095Z,22.72
2017-04-21T01:57:38.074Z,23.37
2017-04-21T01:58:37.556Z,21.75
2017-04-21T01:59:37.484Z,25.33
2017-04-21T02:00:36.305Z,22.00
2017-04-21T02:01:36.400Z,22.72
2017-04-21T02:02:36.021Z,22.73
2017-04-21T02:03:35.827Z,21.25
2017-04-21T02:04:35.075Z,21.70
2017-04-21T02:05:33.548Z,19.70
2017-04-21T02:06:33.140Z,24.57
2017-04-21T02:07:32.595Z,23.85
2017-04-21T02:08:32.589Z,23.35
2017-04-21T02:09:32.200Z,21.58
2017-04-21T02:10:31.801Z,23.28
2017-04-21T02:11:31.044Z,22.58
2017-04-21T02:12:30.645Z,23.60
2017-04-21T02:13:30.240Z,23.07
2017-04-21T02:14:29.635Z,21.12
2017-04-21T02:15:29.180Z,24.05
2017-04-21T02:16:28.436Z,22.80
2017-04-21T02:17:27.681Z,23.85
2017-04-21T02:18:26.504Z,23.68
2017-04-21T02:19:26.322Z,23.52
2017-04-21T02:20:25.603Z,23.63
2017-04-21T02:21:24.843Z,25.20
2017-04-21T02:22:24.435Z,23.85
2017-04-21T02:23:24.020Z,22.85
2017-04-21T02:24:23.274Z,22.15
2017-04-21T02:25:22.596Z,22.82
2017-04-21T02:26:22.220Z,25.30
2017-04-21T02:27:21.796Z,23.88
2017-04-21T02:28:21.396Z,23.22
2017-04-21T02:29:20.692Z,22.82
2017-04-21T02:30:20.261Z,23.82
2017-04-21T02:31:19.417Z,23.08
2017-04-21T02:32:18.764Z,22.83
2017-04-21T02:33:17.248Z,24.32
2017-04-21T02:34:16.504Z,24.05
2017-04-21T02:35:16.083Z,25.25
2017-04-21T02:36:15.357Z,25.22
2017-04-21T02:37:14.048Z,25.35
2017-04-21T02:38:13.419Z,24.45
2017-04-21T02:39:13.685Z,25.85
2017-04-21T02:40:12.932Z,24.50
2017-04-21T02:41:12.168Z,25.93
2017-04-21T02:42:11.412Z,24.58
2017-04-21T02:43:10.995Z,24.53
2017-04-21T02:44:10.471Z,25.28
2017-04-21T02:45:10.056Z,24.73
2017-04-21T02:46:09.277Z,25.12
2017-04-21T02:47:08.871Z,25.67
2017-04-21T02:48:08.120Z,27.52
2017-04-21T02:49:07.706Z,25.98
2017-04-21T02:50:07.325Z,24.85
2017-04-21T02:51:06.569Z,27.77
2017-04-21T02:52:06.396Z,26.48
2017-04-21T02:53:06.313Z,28.82
2017-04-21T02:54:05.607Z,27.12
2017-04-21T02:55:05.184Z,25.52
2017-04-21T02:56:04.460Z,25.35
2017-04-21T02:57:03.720Z,26.48
2017-04-21T02:58:03.303Z,27.70
2017-04-21T02:59:02.553Z,27.17
2017-04-21T03:00:01.788Z,26.03
2017-04-21T03:01:01.363Z,26.92
2017-04-21T03:02:00.619Z,25.37
2017-04-21T03:03:00.777Z,28.33
2017-04-21T03:04:00.156Z,25.78
2017-04-21T03:04:58.635Z,28.25
2017-04-21T03:05:58.028Z,28.00
2017-04-21T03:06:57.598Z,26.13
2017-04-21T03:07:56.855Z,27.03
2017-04-21T03:08:56.419Z,25.85
2017-04-21T03:09:55.652Z,25.73
2017-04-21T03:10:55.232Z,28.07
2017-04-21T03:11:54.460Z,26.77
2017-04-21T03:12:53.685Z,25.02
2017-04-21T03:13:52.963Z,26.03
2017-04-21T03:14:52.569Z,28.35
2017-04-21T03:15:51.899Z,27.18
2017-04-21T03:16:51.708Z,28.33
2017-04-21T03:17:50.953Z,28.15
2017-04-21T03:18:50.519Z,28.08
2017-04-21T03:19:49.800Z,26.18
2017-04-21T03:20:49.020Z,31.00
2017-04-21T03:21:48.264Z,27.78
2017-04-21T03:22:47.836Z,26.58
2017-04-21T03:23:47.412Z,29.03
2017-04-21T03:24:46.656Z,27.17
2017-04-21T03:25:45.166Z,28.68
2017-04-21T03:26:43.651Z,26.85
2017-04-21T03:27:42.909Z,26.27
2017-04-21T03:28:42.097Z,29.18
2017-04-21T03:29:40.585Z,28.33
2017-04-21T03:30:40.191Z,28.12
2017-04-21T03:31:39.455Z,27.73
2017-04-21T03:32:38.687Z,25.87
2017-04-21T03:33:38.313Z,27.83
2017-04-21T03:34:37.560Z,27.22
2017-04-21T03:35:37.406Z,28.13
2017-04-21T03:36:36.660Z,29.82
2017-04-21T03:37:36.268Z,30.70
2017-04-21T03:38:35.508Z,27.03
2017-04-21T03:39:34.977Z,26.85
2017-04-21T03:40:34.203Z,26.80
2017-04-21T03:41:33.428Z,27.82
2017-04-21T03:42:32.707Z,29.48
2017-04-21T03:43:32.404Z,26.15
2017-04-21T03:44:30.916Z,29.73
2017-04-21T03:45:30.229Z,25.50
2017-04-21T03:46:29.727Z,28.32
2017-04-21T03:47:29.024Z,26.72
2017-04-21T03:48:29.036Z,26.42
2017-04-21T03:49:28.673Z,30.67
2017-04-21T03:50:27.192Z,29.70
2017-04-21T03:51:26.457Z,26.50
2017-04-21T03:52:26.055Z,25.27
2017-04-21T03:53:25.351Z,27.72
2017-04-21T03:54:24.637Z,29.28
2017-04-21T03:55:23.971Z,28.60
2017-04-21T03:56:23.235Z,26.18
2017-04-21T03:57:22.519Z,29.87
2017-04-21T03:58:21.792Z,27.95
2017-04-21T03:59:21.069Z,25.55
2017-04-21T04:00:20.336Z,26.78
2017-04-21T04:01:19.633Z,28.78
2017-04-21T04:02:19.260Z,26.65
2017-04-21T04:03:18.888Z,26.38
2017-04-21T04:04:18.152Z,26.78
2017-04-21T04:05:17.439Z,26.67
2017-04-21T04:06:17.044Z,27.63
2017-04-21T04:07:17.144Z,27.07
2017-04-21T04:08:17.180Z,26.77
2017-04-21T04:09:16.447Z,26.92
2017-04-21T04:10:15.725Z,23.95
2017-04-21T04:11:14.221Z,26.63
2017-04-21T04:12:13.499Z,26.47
2017-04-21T04:13:12.852Z,26.32
2017-04-21T04:14:12.124Z,26.27
2017-04-21T04:15:11.748Z,24.87
2017-04-21T04:16:11.016Z,29.35
2017-04-21T04:17:10.280Z,26.37
2017-04-21T04:18:09.687Z,25.07
2017-04-21T04:19:09.356Z,27.07
2017-04-21T04:20:08.620Z,26.50
2017-04-21T04:21:08.233Z,29.00
2017-04-21T04:22:07.480Z,27.37
2017-04-21T04:23:06.727Z,26.88
2017-04-21T04:24:05.989Z,29.63
2017-04-21T04:25:05.283Z,31.50
2017-04-21T04:26:04.547Z,26.42
2017-04-21T04:27:04.095Z,29.25
2017-04-21T04:28:04.040Z,29.95
2017-04-21T04:29:03.297Z,29.83
2017-04-21T04:30:02.557Z,31.60
2017-04-21T04:31:01.872Z,35.72
2017-04-21T04:32:01.182Z,33.87
2017-04-21T04:33:00.444Z,32.30
2017-04-21T04:34:00.048Z,33.25
2017-04-21T04:34:59.304Z,28.58
2017-04-21T04:35:58.564Z,26.95
2017-04-21T04:36:57.880Z,29.78
2017-04-21T04:37:57.144Z,31.02
2017-04-21T04:38:56.756Z,30.45
2017-04-21T04:39:56.066Z,28.50
2017-04-21T04:40:55.350Z,29.02
2017-04-21T04:41:54.616Z,28.25
2017-04-21T04:42:53.875Z,29.15
2017-04-21T04:43:53.435Z,27.83
2017-04-21T04:44:52.997Z,28.05
2017-04-21T04:45:52.228Z,28.72
2017-04-21T04:46:51.444Z,25.75
2017-04-21T04:47:50.792Z,26.92
2017-04-21T04:48:50.053Z,29.63
2017-04-21T04:49:49.623Z,28.48
2017-04-21T04:50:49.187Z,30.28
2017-04-21T04:51:48.403Z,29.58
2017-04-21T04:52:47.625Z,29.07
2017-04-21T04:53:46.855Z,28.35
2017-04-21T04:54:46.487Z,27.63
2017-04-21T04:55:46.051Z,28.63
2017-04-21T04:56:45.687Z,28.87
2017-04-21T04:57:45.279Z,28.00
2017-04-21T04:58:44.844Z,27.35
2017-04-21T04:59:44.097Z,27.12
2017-04-21T05:00:43.692Z,27.45
2017-04-21T05:01:42.933Z,26.18
2017-04-21T05:02:42.912Z,28.13
2017-04-21T05:03:42.181Z,26.18
2017-04-21T05:04:41.785Z,25.72
2017-04-21T05:05:41.360Z,28.35
2017-04-21T05:06:40.641Z,28.38
2017-04-21T05:07:40.203Z,27.07
2017-04-21T05:08:39.428Z,27.03
2017-04-21T05:09:38.665Z,29.12
2017-04-21T05:10:37.879Z,28.13
2017-04-21T05:11:37.835Z,29.00
2017-04-21T05:12:37.098Z,29.92
2017-04-21T05:13:36.651Z,30.98
2017-04-21T05:14:35.876Z,27.02
2017-04-21T05:15:35.095Z,27.77
2017-04-21T05:16:34.671Z,28.88
2017-04-21T05:17:34.235Z,29.20
2017-04-21T05:18:33.975Z,29.28
2017-04-21T05:19:33.547Z,29.38
2017-04-21T05:20:34.024Z,29.27
2017-04-21T05:21:33.244Z,28.33
2017-04-21T05:22:32.487Z,27.85
2017-04-21T05:23:31.699Z,28.53
2017-04-21T05:24:30.955Z,27.57
2017-04-21T05:25:30.522Z,29.45
2017-04-21T05:26:29.757Z,28.85
2017-04-21T05:27:28.979Z,26.75
2017-04-21T05:28:28.200Z,28.58
2017-04-21T05:29:27.816Z,28.55
2017-04-21T05:30:27.416Z,27.12
2017-04-21T05:31:26.984Z,26.58
2017-04-21T05:32:26.951Z,26.62
2017-04-21T05:33:26.172Z,24.87
2017-04-21T05:34:25.391Z,28.98
2017-04-21T05:35:24.966Z,28.55
2017-04-21T05:36:24.958Z,25.52
2017-04-21T05:37:24.172Z,26.07
2017-04-21T05:38:23.738Z,29.70
2017-04-21T05:39:23.208Z,27.52
2017-04-21T05:40:23.160Z,27.43
2017-04-21T05:41:23.137Z,26.60
2017-04-21T05:42:22.913Z,26.95
2017-04-21T05:43:22.200Z,26.45
2017-04-21T05:44:22.112Z,29.37
2017-04-21T05:45:21.677Z,27.08
2017-04-21T05:46:21.280Z,27.95
2017-04-21T05:47:20.495Z,27.87
2017-04-21T05:48:20.093Z,25.70
2017-04-21T05:49:20.411Z,26.55
2017-04-21T05:50:19.632Z,27.97
2017-04-21T05:51:19.608Z,27.13
2017-04-21T05:52:19.191Z,28.57
2017-04-21T05:53:18.757Z,27.17
2017-04-21T05:54:18.344Z,25.87
2017-04-21T05:55:18.527Z,26.83
2017-04-21T05:56:18.079Z,28.20
2017-04-21T05:57:17.653Z,33.65
2017-04-21T05:58:16.877Z,31.93
2017-04-21T05:59:16.091Z,30.10
2017-04-21T06:00:15.704Z,32.28
2017-04-21T06:01:14.920Z,31.37
2017-04-21T06:02:14.131Z,27.68
2017-04-21T06:03:13.357Z,26.77
2017-04-21T06:04:12.576Z,27.88
2017-04-21T06:05:12.531Z,26.80
2017-04-21T06:06:12.411Z,28.50
2017-04-21T06:07:11.637Z,28.93
2017-04-21T06:08:11.033Z,28.07
2017-04-21T06:09:10.505Z,25.93
2017-04-21T06:10:09.771Z,27.38
2017-04-21T06:11:09.313Z,26.55
2017-04-21T06:12:08.936Z,27.72
2017-04-21T06:13:08.152Z,27.52
2017-04-21T06:14:07.729Z,30.50
2017-04-21T06:15:08.376Z,28.28
2017-04-21T06:16:07.600Z,26.82
2017-04-21T06:17:06.817Z,30.02
2017-04-21T06:18:06.116Z,27.55
2017-04-21T06:19:06.434Z,29.12
2017-04-21T06:20:06.753Z,28.73
2017-04-21T06:21:06.003Z,28.80
2017-04-21T06:22:05.227Z,28.18
2017-04-21T06:23:04.456Z,29.92
2017-04-21T06:24:04.056Z,28.67
2017-04-21T06:25:03.670Z,30.78
2017-04-21T06:26:02.883Z,31.98
2017-04-21T06:27:02.094Z,29.62
2017-04-21T06:28:01.309Z,30.63
2017-04-21T06:29:00.543Z,30.57
2017-04-21T06:29:59.884Z,32.15
2017-04-21T06:30:59.096Z,27.83
2017-04-21T06:31:58.325Z,34.32
2017-04-21T06:32:57.561Z,34.55
2017-04-21T06:33:57.064Z,30.37
2017-04-21T06:34:56.321Z,32.72
2017-04-21T06:35:55.578Z,29.05
2017-04-21T06:36:54.787Z,31.88
2017-04-21T06:37:55.092Z,32.18
2017-04-21T06:38:54.311Z,30.75
2017-04-21T06:39:52.826Z,31.33
2017-04-21T06:40:52.071Z,28.85
2017-04-21T06:41:51.676Z,31.22
2017-04-21T06:42:50.915Z,30.20
2017-04-21T06:43:50.479Z,30.33
2017-04-21T06:44:50.465Z,31.37
2017-04-21T06:45:49.192Z,31.33
2017-04-21T06:46:48.759Z,30.40
2017-04-21T06:47:48.092Z,30.85
2017-04-21T06:48:47.315Z,27.50
2017-04-21T06:49:47.804Z,28.63
2017-04-21T06:50:47.076Z,27.62
2017-04-21T06:51:46.955Z,32.70
2017-04-21T06:52:46.184Z,31.38
2017-04-21T06:53:45.693Z,29.15
2017-04-21T06:54:44.914Z,31.02
2017-04-21T06:55:44.538Z,27.80
2017-04-21T06:56:43.801Z,29.32
2017-04-21T06:57:43.092Z,29.83
2017-04-21T06:58:42.326Z,30.97
2017-04-21T06:59:41.584Z,28.88
2017-04-21T07:00:41.155Z,29.90
2017-04-21T07:01:40.381Z,28.78
2017-04-21T07:02:51.160Z,29.60
2017-04-21T07:03:50.747Z,28.10
2017-04-21T07:04:50.385Z,28.65
2017-04-21T07:05:50.816Z,28.17
2017-04-21T07:06:50.124Z,28.22
2017-04-21T07:07:49.684Z,27.90
2017-04-21T07:08:48.914Z,29.73
2017-04-21T07:09:48.716Z,29.10
2017-04-21T07:10:47.972Z,28.10
2017-04-21T07:11:48.280Z,28.55
2017-04-21T07:12:47.526Z,29.77
2017-04-21T07:13:46.805Z,30.27
2017-04-21T07:14:46.376Z,29.75
2017-04-21T07:15:45.648Z,28.45
2017-04-21T07:16:45.920Z,29.60
2017-04-21T07:17:45.479Z,28.83
2017-04-21T07:18:44.700Z,29.27
2017-04-21T07:19:43.923Z,31.70
2017-04-21T07:20:43.181Z,32.40
2017-04-21T07:21:42.460Z,29.62
2017-04-21T07:22:41.728Z,30.30
2017-04-21T07:23:41.215Z,28.05
2017-04-21T07:24:40.435Z,26.45
2017-04-21T07:25:39.657Z,27.38
2017-04-21T07:26:38.924Z,30.50
2017-04-21T07:27:38.156Z,29.20
2017-04-21T07:28:38.172Z,27.77
2017-04-21T07:29:37.428Z,28.77
2017-04-21T07:30:37.012Z,28.13
2017-04-21T07:31:36.828Z,28.02
2017-04-21T07:32:36.197Z,28.23
2017-04-21T07:33:35.440Z,28.73
2017-04-21T07:34:35.467Z,29.32
2017-04-21T07:36:33.925Z,28.40
2017-04-21T07:37:33.905Z,28.72
2017-04-21T07:38:33.185Z,27.78
2017-04-21T07:39:32.462Z,27.73
2017-04-21T07:40:32.110Z,27.27
2017-04-21T07:41:31.364Z,28.05
2017-04-21T07:42:31.280Z,27.85
2017-04-21T07:43:30.537Z,27.68
2017-04-21T07:44:29.820Z,27.53
2017-04-21T07:45:29.478Z,28.32
2017-04-21T07:46:28.926Z,28.88
2017-04-21T07:47:28.314Z,26.83
2017-04-21T07:48:28.067Z,28.62
2017-04-21T07:49:27.317Z,25.72
2017-04-21T07:50:26.629Z,27.85
2017-04-21T07:51:25.889Z,26.33
2017-04-21T07:52:25.199Z,26.33
2017-04-21T07:53:24.584Z,26.12
2017-04-21T07:54:23.831Z,28.10
2017-04-21T07:55:23.096Z,28.08
2017-04-21T07:56:22.357Z,25.58
2017-04-21T07:57:21.637Z,25.07
2017-04-21T07:58:20.931Z,25.10
2017-04-21T07:59:20.211Z,24.28
2017-04-21T08:00:19.476Z,27.15
2017-04-21T08:01:18.735Z,26.98
2017-04-21T08:02:17.979Z,25.85
2017-04-21T08:03:17.887Z,26.53
2017-04-21T08:04:17.162Z,25.32
2017-04-21T08:05:16.424Z,25.17
2017-04-21T08:06:16.768Z,25.82
2017-04-21T08:07:16.388Z,24.45
2017-04-21T08:08:16.387Z,24.32
2017-04-21T08:09:15.684Z,25.13
2017-04-21T08:10:15.303Z,26.42
2017-04-21T08:11:15.296Z,25.05
2017-04-21T08:12:15.243Z,26.67
2017-04-21T08:13:14.516Z,24.85
2017-04-21T08:14:13.764Z,25.30
2017-04-21T08:15:13.041Z,27.17
2017-04-21T08:16:11.567Z,26.45
2017-04-21T08:17:10.823Z,27.37
2017-04-21T08:18:10.316Z,25.97
2017-04-21T08:19:09.563Z,25.45
2017-04-21T08:20:08.848Z,24.30
2017-04-21T08:21:08.091Z,27.10
2017-04-21T08:22:07.983Z,26.60
2017-04-21T08:23:07.243Z,27.07
2017-04-21T08:24:07.487Z,26.00
2017-04-21T08:25:06.749Z,27.10
2017-04-21T08:26:06.748Z,25.02
2017-04-21T08:27:07.132Z,26.97
2017-04-21T08:28:06.726Z,25.98
2017-04-21T08:29:06.024Z,24.93
2017-04-21T08:30:05.616Z,26.98
2017-04-21T08:31:04.110Z,27.08
2017-04-21T08:32:04.037Z,27.52
2017-04-21T08:33:03.415Z,25.80
2017-04-21T08:34:02.712Z,26.93
2017-04-21T08:35:02.719Z,26.88
2017-04-21T08:36:03.052Z,26.80
2017-04-21T08:37:02.332Z,27.98
2017-04-21T08:38:01.596Z,26.40
2017-04-21T08:39:00.920Z,26.58
2017-04-21T08:40:00.583Z,27.78
2017-04-21T08:40:59.863Z,28.53
2017-04-21T08:41:59.128Z,26.02
2017-04-21T08:42:58.503Z,26.33
2017-04-21T08:43:57.749Z,27.70
2017-04-21T08:44:57.028Z,26.62
2017-04-21T08:45:56.469Z,28.33
2017-04-21T08:46:55.688Z,27.72
2017-04-21T08:47:55.284Z,26.10
2017-04-21T08:48:54.507Z,26.72
2017-04-21T08:49:53.723Z,27.18
2017-04-21T08:50:53.059Z,25.52
2017-04-21T08:51:52.680Z,27.20
2017-04-21T08:52:51.907Z,27.72
2017-04-21T08:53:51.141Z,25.95
2017-04-21T08:54:51.442Z,27.32
2017-04-21T08:55:50.961Z,25.23
2017-04-21T08:56:50.556Z,26.48
2017-04-21T08:57:49.784Z,26.30
2017-04-21T08:58:49.397Z,26.80
2017-04-21T08:59:48.676Z,26.72
2017-04-21T09:00:48.235Z,27.63
2017-04-21T09:01:47.852Z,27.57
2017-04-21T09:02:47.115Z,25.35
2017-04-21T09:03:46.342Z,26.32
2017-04-21T09:04:46.296Z,26.30
2017-04-21T09:05:45.644Z,24.53
2017-04-21T09:06:45.905Z,25.47
2017-04-21T09:07:45.124Z,24.72
2017-04-21T09:08:44.373Z,24.95
2017-04-21T09:09:44.283Z,24.35
2017-04-21T09:10:44.276Z,24.17
2017-04-21T09:11:43.839Z,26.40
2017-04-21T09:12:43.812Z,25.58
2017-04-21T09:13:43.381Z,26.25
2017-04-21T09:14:42.655Z,25.93
2017-04-21T09:15:41.881Z,25.70
2017-04-21T09:16:41.096Z,26.27
2017-04-21T09:17:40.311Z,26.48
2017-04-21T09:18:39.871Z,26.18
2017-04-21T09:19:40.020Z,25.40
2017-04-21T09:20:39.272Z,26.43
2017-04-21T09:21:38.496Z,25.53
2017-04-21T09:22:37.707Z,27.73
2017-04-21T09:23:37.288Z,29.28
2017-04-21T09:24:36.512Z,28.83
2017-04-21T09:25:36.090Z,27.05
2017-04-21T09:26:35.694Z,29.92
2017-04-21T09:27:34.919Z,26.47
2017-04-21T09:28:33.720Z,27.70
2017-04-21T09:29:33.680Z,29.17
2017-04-21T09:30:32.900Z,25.08
2017-04-21T09:31:48.831Z,27.70
2017-04-21T09:32:31.736Z,26.22
2017-04-21T09:33:30.989Z,25.40
2017-04-21T09:34:30.643Z,25.33
2017-04-21T09:35:30.573Z,25.87
2017-04-21T09:36:30.844Z,24.45
2017-04-21T09:37:30.413Z,24.47
2017-04-21T09:38:30.407Z,26.23
2017-04-21T09:39:29.804Z,27.83
2017-04-21T09:40:29.025Z,25.07
2017-04-21T09:41:28.253Z,26.30
2017-04-21T09:42:27.524Z,25.48
2017-04-21T09:43:27.133Z,25.98
2017-04-21T09:44:26.443Z,25.57
2017-04-21T09:45:25.740Z,26.03
2017-04-21T09:46:25.472Z,23.90
2017-04-21T09:47:24.737Z,23.60
2017-04-21T09:48:25.101Z,25.85
2017-04-21T09:49:24.347Z,25.33
2017-04-21T09:50:24.379Z,28.17
2017-04-21T09:51:23.642Z,27.15
2017-04-21T09:52:36.404Z,28.32
2017-04-21T09:53:22.260Z,25.10
2017-04-21T09:58:43.187Z,25.75
2017-04-21T09:59:53.505Z,25.88
2017-04-21T10:00:06.708Z,24.97
2017-04-21T10:00:56.313Z,26.87
2017-04-21T10:03:07.834Z,25.78
2017-04-21T10:04:06.933Z,25.08
2017-04-21T10:04:31.528Z,25.03
2017-04-21T10:04:46.193Z,25.10
2017-04-21T10:05:15.228Z,25.53
2017-04-21T10:07:14.280Z,23.65
2017-04-21T10:07:38.359Z,25.55
2017-04-21T10:07:38.459Z,23.28
2017-04-21T10:07:41.142Z,24.80
2017-04-21T10:08:22.016Z,25.65
2017-04-21T10:08:33.246Z,24.33
2017-04-21T10:09:12.457Z,24.20
2017-04-21T10:10:12.436Z,25.58
2017-04-21T10:11:11.952Z,23.25
2017-04-21T10:12:11.171Z,24.58
2017-04-21T10:13:10.398Z,23.70
2017-04-21T10:14:10.525Z,24.17
2017-04-21T10:15:10.149Z,24.00
2017-04-21T10:16:10.048Z,24.38
2017-04-21T10:17:09.981Z,24.40
2017-04-21T10:18:09.547Z,24.08
2017-04-21T10:19:08.773Z,21.55
2017-04-21T10:20:08.019Z,22.20
2017-04-21T10:21:07.331Z,22.52
2017-04-21T10:22:06.900Z,22.27
2017-04-21T10:23:06.450Z,21.35
2017-04-21T10:24:05.704Z,21.00
2017-04-21T10:25:04.927Z,21.17
2017-04-21T10:26:04.167Z,22.80
2017-04-21T10:27:03.381Z,19.43
2017-04-21T10:28:03.287Z,20.20
2017-04-21T10:29:03.240Z,20.23
2017-04-21T10:30:02.807Z,22.30
2017-04-21T10:31:02.023Z,23.45
2017-04-21T10:32:02.039Z,23.08
2017-04-21T10:33:01.742Z,23.15
2017-04-21T10:34:01.248Z,24.87
2017-04-21T10:35:00.476Z,22.88
2017-04-21T10:35:59.704Z,23.22
2017-04-21T10:36:59.677Z,22.27
2017-04-21T10:37:58.943Z,21.32
2017-04-21T10:38:58.500Z,23.00
2017-04-21T10:39:57.736Z,22.97
2017-04-21T10:40:57.024Z,21.23
2017-04-21T10:41:56.254Z,22.88
2017-04-21T10:42:55.868Z,22.10
2017-04-21T10:43:55.148Z,22.20
2017-04-21T10:44:54.744Z,22.05
2017-04-21T10:45:54.748Z,22.20
2017-04-21T10:46:54.004Z,22.55
2017-04-21T10:47:53.592Z,22.93
2017-04-21T10:48:52.907Z,22.35
2017-04-21T10:49:52.191Z,19.67
2017-04-21T10:50:52.187Z,20.52
2017-04-21T10:51:51.449Z,20.20
2017-04-21T10:52:50.747Z,19.63
2017-04-21T10:53:50.003Z,20.65
2017-04-21T10:54:49.608Z,20.17
2017-04-21T10:55:49.979Z,21.25
2017-04-21T10:56:49.238Z,21.85
2017-04-21T10:57:48.497Z,21.45
2017-04-21T10:58:48.844Z,23.38
2017-04-21T10:59:48.104Z,21.60
2017-04-21T11:00:46.591Z,23.32
2017-04-21T11:01:45.883Z,23.13
2017-04-21T11:02:45.144Z,22.45
2017-04-21T11:03:44.408Z,23.40
2017-04-21T11:04:43.675Z,23.28
2017-04-21T11:05:42.932Z,23.47
2017-04-21T11:06:42.572Z,24.33
2017-04-21T11:07:41.876Z,21.85
2017-04-21T11:08:41.481Z,21.95
2017-04-21T11:09:40.748Z,20.45
2017-04-21T11:10:40.007Z,22.95
2017-04-21T11:11:39.259Z,25.75
2017-04-21T11:12:39.339Z,22.72
2017-04-21T11:13:38.619Z,21.73
2017-04-21T11:14:38.002Z,24.02
2017-04-21T11:15:37.256Z,22.33
2017-04-21T11:16:36.521Z,22.60
2017-04-21T11:17:36.022Z,22.93
2017-04-21T11:18:35.279Z,22.72
2017-04-21T11:19:34.572Z,22.00
2017-04-21T11:20:34.533Z,21.53
2017-04-21T11:21:34.535Z,20.83
2017-04-21T11:22:34.531Z,22.57
2017-04-21T11:23:33.792Z,22.22
2017-04-21T11:24:34.180Z,23.18
2017-04-21T11:25:33.442Z,23.57
2017-04-21T11:26:33.040Z,22.40
2017-04-21T11:27:32.288Z,21.35
2017-04-21T11:28:31.536Z,22.67
2017-04-21T11:29:30.784Z,22.67
2017-04-21T11:30:30.099Z,25.08
2017-04-21T11:31:30.098Z,23.18
2017-04-21T11:32:29.697Z,23.63
2017-04-21T11:33:28.952Z,21.45
2017-04-21T11:34:28.203Z,23.22
2017-04-21T11:35:27.462Z,22.63
2017-04-21T11:36:26.756Z,22.43
2017-04-21T11:37:26.032Z,23.63
2017-04-21T11:38:25.283Z,21.90
2017-04-21T11:39:24.540Z,23.77
2017-04-21T11:40:23.803Z,22.55
2017-04-21T11:41:23.056Z,22.68
2017-04-21T11:42:22.391Z,21.88
2017-04-21T11:43:21.644Z,20.42
2017-04-21T11:44:20.911Z,22.07
2017-04-21T11:45:20.185Z,22.42
2017-04-21T11:46:19.444Z,22.10
2017-04-21T11:47:18.724Z,22.20
2017-04-21T11:48:18.021Z,22.13
2017-04-21T11:49:17.275Z,21.75
2017-04-21T11:50:17.175Z,20.65
2017-04-21T11:51:16.440Z,21.27
2017-04-21T11:52:15.700Z,22.22
2017-04-21T11:53:14.951Z,20.88
2017-04-21T11:54:14.243Z,22.50
2017-04-21T11:55:13.503Z,20.45
2017-04-21T11:56:12.768Z,21.60
2017-04-21T11:57:12.018Z,21.53
2017-04-21T11:58:11.286Z,22.62
2017-04-21T11:59:10.916Z,21.48
2017-04-21T12:00:10.215Z,21.57
2017-04-21T12:01:09.463Z,24.68
2017-04-21T12:02:08.868Z,21.00
2017-04-21T12:03:08.449Z,20.98
2017-04-21T12:04:07.702Z,21.58
2017-04-21T12:05:06.971Z,22.95
2017-04-21T12:06:06.256Z,22.73
2017-04-21T12:07:05.516Z,21.55
2017-04-21T12:08:05.147Z,22.33
2017-04-21T12:09:05.802Z,20.03
2017-04-21T12:10:05.795Z,22.73
2017-04-21T12:11:05.048Z,22.25
2017-04-21T12:12:05.050Z,22.13
2017-04-21T12:13:04.324Z,22.90
2017-04-21T12:14:03.592Z,21.85
2017-04-21T12:15:03.600Z,23.77
2017-04-21T12:16:03.951Z,22.12
2017-04-21T12:17:03.573Z,23.77
2017-04-21T12:18:02.868Z,22.43
2017-04-21T12:19:02.126Z,24.75
2017-04-21T12:20:02.079Z,24.42
2017-04-21T12:21:01.440Z,22.98
2017-04-21T12:22:00.932Z,22.73
2017-04-21T12:23:00.242Z,24.65
2017-04-21T12:23:59.875Z,25.17
2017-04-21T12:24:59.870Z,23.70
2017-04-21T12:25:59.129Z,26.78
2017-04-21T12:26:58.385Z,23.87
2017-04-21T12:27:57.648Z,24.45
2017-04-21T12:28:57.884Z,24.47
2017-04-21T12:29:57.167Z,25.13
2017-04-21T12:30:56.427Z,25.32
2017-04-21T12:31:55.684Z,24.47
2017-04-21T12:32:54.986Z,25.77
2017-04-21T12:33:54.244Z,24.73
2017-04-21T12:34:53.503Z,25.22
2017-04-21T12:35:53.526Z,24.58
2017-04-21T12:36:52.786Z,25.23
2017-04-21T12:37:52.060Z,26.73
2017-04-21T12:38:51.321Z,25.90
2017-04-21T12:39:50.591Z,26.58
2017-04-21T12:40:49.840Z,26.35
2017-04-21T12:41:49.371Z,27.05
2017-04-21T12:42:48.604Z,26.52
2017-04-21T12:43:48.912Z,27.53
2017-04-21T12:44:48.125Z,26.88
2017-04-21T12:45:47.687Z,25.53
2017-04-21T12:46:46.904Z,26.58